Donny Nolan — WDI7388 — position and weather

sailwx.info

Track history (hours):
 
Tides and Currents Weather Stations Pressure Air Temp Water Temp Dewpoint Dewpoint Depression Visibility Wind Speed Wind Dir Waves Ship Positions

Donny Nolan

Owner: Kirby Inland Marine LP, Houston, TX. More information available from US FCC via Universal Licensing System and Coast Guard Vessel Documentation Center.

Last reported at 2018-Feb-20 05:58 UTC. Time now 2018-Feb-20 06:04 UTC.
Position N 28°45' W 095°46'.

Length 214 m; draft 3 m.

Type: . MMSI: 367415220.

Date/timePositionNaut miles runAvg speedWind from/ knotsBaromVisibWave heightAir tempDewpointWater temp
2018-Feb-20 05:58N 28°45' W 095°46'32 3.6
2018-Feb-19 21:03N 29°02' W 095°14'0 4.6
2018-Feb-19 21:01N 29°02' W 095°14'3 4.8
2018-Feb-19 20:26N 29°04' W 095°13'2 4.4
2018-Feb-19 19:57N 29°06' W 095°12'10 3.8
2018-Feb-19 17:20N 29°12' W 095°03'1 4.0
2018-Feb-19 16:58N 29°13' W 095°02'2 4.5
2018-Feb-19 16:30N 29°15' W 095°00'2 4.4
2018-Feb-19 16:00N 29°17' W 094°59'5 4.4
2018-Feb-19 14:51N 29°18' W 094°53'1 3.4
2018-Feb-19 14:30N 29°19' W 094°52'2 3.9
2018-Feb-19 13:59N 29°20' W 094°50'2 4.8
2018-Feb-19 13:30N 29°21' W 094°48'2 4.9
2018-Feb-19 13:00N 29°23' W 094°46'2 4.0
2018-Feb-19 12:31N 29°24' W 094°45'2 2.8
2018-Feb-19 11:55N 29°26' W 094°43'0 0.0
2018-Feb-19 11:30N 29°26' W 094°43'0 0.0
2018-Feb-19 11:00N 29°26' W 094°43'0 0.0
2018-Feb-19 10:28N 29°26' W 094°43'0 0.0
2018-Feb-19 10:01N 29°26' W 094°43'0 0.0
2018-Feb-19 09:30N 29°26' W 094°43'0 0.0
2018-Feb-19 09:01N 29°26' W 094°43'0 0.0
2018-Feb-19 08:31N 29°26' W 094°43'0 0.0
2018-Feb-19 08:00N 29°26' W 094°43'0 0.0
2018-Feb-19 07:31N 29°26' W 094°43'0 0.0
2018-Feb-19 07:01N 29°26' W 094°43'0 0.0
2018-Feb-19 06:30N 29°26' W 094°43'0 0.0
2018-Feb-19 06:00N 29°26' W 094°43'0 0.0
2018-Feb-19 05:31N 29°26' W 094°43'0 0.0
2018-Feb-19 05:01N 29°26' W 094°43'0 0.0
2018-Feb-19 04:30N 29°26' W 094°43'0 0.0
2018-Feb-19 04:00N 29°26' W 094°43'0 0.0
2018-Feb-19 03:27N 29°26' W 094°43'0 0.0
2018-Feb-19 03:00N 29°26' W 094°43'0 0.0
2018-Feb-19 02:23N 29°26' W 094°43'0 0.0
2018-Feb-19 01:36N 29°26' W 094°43'0 0.0
2018-Feb-19 01:17N 29°26' W 094°43'0 0.0
2018-Feb-19 00:39N 29°26' W 094°43'0 0.0
2018-Feb-19 00:26N 29°26' W 094°43'2 2.5
2018-Feb-18 23:41N 29°27' W 094°42'12 3.4
2018-Feb-18 20:06N 29°32' W 094°29'0 3.4
2018-Feb-18 20:00N 29°32' W 094°29'2 3.3
2018-Feb-18 19:31N 29°33' W 094°28'2 2.7
2018-Feb-18 18:48N 29°34' W 094°26'0 1.5
2018-Feb-18 18:30N 29°34' W 094°25'1 2.8
2018-Feb-18 18:00N 29°35' W 094°25'0 0.1
2018-Feb-18 17:30N 29°36' W 094°25'0 0.0
2018-Feb-18 17:01N 29°36' W 094°25'0 0.0
2018-Feb-18 16:30N 29°36' W 094°25'0 0.0
2018-Feb-18 16:00N 29°36' W 094°25'0 0.0
2018-Feb-18 15:30N 29°36' W 094°25'0 0.0
2018-Feb-18 15:00N 29°36' W 094°25'0 0.0
2018-Feb-18 14:31N 29°36' W 094°25'0 0.1
2018-Feb-18 13:59N 29°36' W 094°25'0 0.0
2018-Feb-18 13:29N 29°36' W 094°25'0 0.0
2018-Feb-18 12:59N 29°36' W 094°25'0 0.0
2018-Feb-18 12:30N 29°36' W 094°25'0 0.0
2018-Feb-18 12:00N 29°36' W 094°25'0 0.0
2018-Feb-18 11:30N 29°36' W 094°25'0 0.0
2018-Feb-18 11:00N 29°36' W 094°25'0 0.0
2018-Feb-18 10:30N 29°36' W 094°25'0 0.3
2018-Feb-18 09:58N 29°36' W 094°25'0 0.1
2018-Feb-18 09:28N 29°36' W 094°25'0 0.3
2018-Feb-18 09:00N 29°36' W 094°24'0 0.4
2018-Feb-18 08:29N 29°36' W 094°25'0 0.2
2018-Feb-18 08:00N 29°36' W 094°25'0 0.1
2018-Feb-18 07:30N 29°36' W 094°25'0 0.1
2018-Feb-18 06:59N 29°36' W 094°25'0 0.0
2018-Feb-18 06:29N 29°36' W 094°25'2 0.6
2018-Feb-18 03:29N 29°36' W 094°22'0 0.0
2018-Feb-18 02:55N 29°36' W 094°22'0 0.0
2018-Feb-18 02:30N 29°36' W 094°22'0 0.0
2018-Feb-18 02:00N 29°36' W 094°22'0 0.0
2018-Feb-18 01:30N 29°36' W 094°22'0 0.0
2018-Feb-18 01:00N 29°36' W 094°22'0 0.0
2018-Feb-18 00:25N 29°36' W 094°22'0 0.6
2018-Feb-17 23:59N 29°36' W 094°22'0 0.0
2018-Feb-17 23:30N 29°36' W 094°22'0 0.2
2018-Feb-17 22:58N 29°36' W 094°22'0 0.1
2018-Feb-17 22:31N 29°36' W 094°22'0 0.3
2018-Feb-17 22:00N 29°36' W 094°22'2 3.8
2018-Feb-17 21:30N 29°37' W 094°20'2 4.8
2018-Feb-17 20:59N 29°38' W 094°18'2 4.7
2018-Feb-17 20:30N 29°39' W 094°15'2 4.6
2018-Feb-17 20:00N 29°40' W 094°13'2 4.1
2018-Feb-17 19:30N 29°41' W 094°11'1 2.1
2018-Feb-17 19:00N 29°41' W 094°10'2 4.1
2018-Feb-17 18:30N 29°43' W 094°08'2 4.2
2018-Feb-17 18:00N 29°44' W 094°06'2 4.2
2018-Feb-17 17:31N 29°45' W 094°04'2 4.3
2018-Feb-17 17:01N 29°47' W 094°02'2 4.2
2018-Feb-17 16:30N 29°48' W 094°00'2 4.2
2018-Feb-17 16:01N 29°49' W 093°58'1 2.3
2018-Feb-17 15:31N 29°50' W 093°58'0 0.3
2018-Feb-17 15:01N 29°51' W 093°58'0 0.7
2018-Feb-17 14:30N 29°51' W 093°58'0 0.1
2018-Feb-17 14:01N 29°51' W 093°58'0 0.0
2018-Feb-17 13:31N 29°51' W 093°58'0 0.0
2018-Feb-17 13:00N 29°51' W 093°58'0 0.0
2018-Feb-17 12:30N 29°51' W 093°58'0 0.0
2018-Feb-17 12:00N 29°51' W 093°58'0 0.0
2018-Feb-17 11:30N 29°51' W 093°58'0 0.0
2018-Feb-17 11:01N 29°51' W 093°58'0 0.0
2018-Feb-17 10:31N 29°51' W 093°58'0 0.0
2018-Feb-17 10:01N 29°51' W 093°58'0 0.0
2018-Feb-17 09:30N 29°51' W 093°58'0 0.0
2018-Feb-17 09:00N 29°51' W 093°58'0 0.0
2018-Feb-17 08:31N 29°51' W 093°58'0 0.0
2018-Feb-17 08:00N 29°51' W 093°58'0 0.0
2018-Feb-17 07:31N 29°51' W 093°58'0 0.0
2018-Feb-17 07:01N 29°51' W 093°58'0 0.0
2018-Feb-17 06:31N 29°51' W 093°58'0 0.0
2018-Feb-17 06:00N 29°51' W 093°58'0 0.0
2018-Feb-17 05:31N 29°51' W 093°58'0 0.0
2018-Feb-17 05:01N 29°51' W 093°58'0 0.0
2018-Feb-17 04:31N 29°51' W 093°58'0 0.0
2018-Feb-17 04:00N 29°51' W 093°58'0 0.0
2018-Feb-17 03:30N 29°51' W 093°58'0 0.0
2018-Feb-17 03:00N 29°51' W 093°58'0 0.0
2018-Feb-17 02:31N 29°51' W 093°58'0 0.0
2018-Feb-17 02:00N 29°51' W 093°58'0 0.0
2018-Feb-17 01:30N 29°51' W 093°58'0 0.0
2018-Feb-17 01:01N 29°51' W 093°58'0 0.0
2018-Feb-17 00:30N 29°51' W 093°58'0 0.0
2018-Feb-17 00:01N 29°51' W 093°58'0 0.0
2018-Feb-16 23:31N 29°51' W 093°58'0 0.0
2018-Feb-16 23:01N 29°51' W 093°58'0 0.0
2018-Feb-16 22:31N 29°51' W 093°58'0 0.0
2018-Feb-16 22:01N 29°51' W 093°58'0 0.0
2018-Feb-16 21:31N 29°51' W 093°58'0 0.0
2018-Feb-16 21:00N 29°51' W 093°58'0 0.7
2018-Feb-16 20:30N 29°51' W 093°58'0 0.1
2018-Feb-16 20:01N 29°51' W 093°58'0 0.1
2018-Feb-16 19:31N 29°51' W 093°58'0 0.6
2018-Feb-16 19:00N 29°51' W 093°58'0 0.0
2018-Feb-16 18:30N 29°51' W 093°58'0 0.0
2018-Feb-16 18:00N 29°51' W 093°58'0 0.0
2018-Feb-16 17:30N 29°51' W 093°58'0 0.0
2018-Feb-16 17:01N 29°51' W 093°58'0 0.0
2018-Feb-16 16:30N 29°51' W 093°58'0 0.0
2018-Feb-16 16:01N 29°51' W 093°58'0 0.0
2018-Feb-16 15:30N 29°51' W 093°58'0 0.0
2018-Feb-16 15:00N 29°51' W 093°58'0 0.0
2018-Feb-16 14:30N 29°51' W 093°58'0 0.0
2018-Feb-16 14:01N 29°51' W 093°58'0 0.0
2018-Feb-16 13:31N 29°51' W 093°58'0 0.4
2018-Feb-16 13:01N 29°51' W 093°58'0 0.3
2018-Feb-16 12:29N 29°51' W 093°58'0 0.0
2018-Feb-16 12:00N 29°51' W 093°58'0 0.0
2018-Feb-16 11:31N 29°51' W 093°58'0 0.0
2018-Feb-16 11:01N 29°51' W 093°58'0 0.0
2018-Feb-16 10:31N 29°51' W 093°58'0 0.0
2018-Feb-16 10:00N 29°51' W 093°58'0 0.0
2018-Feb-16 09:31N 29°51' W 093°58'0 0.0
2018-Feb-16 09:01N 29°51' W 093°58'0 0.0
2018-Feb-16 08:31N 29°51' W 093°58'0 0.0
2018-Feb-16 08:01N 29°51' W 093°58'0 0.0
2018-Feb-16 07:31N 29°51' W 093°58'0 0.0
2018-Feb-16 07:01N 29°51' W 093°58'0 0.0
2018-Feb-16 06:31N 29°51' W 093°58'0 0.0
2018-Feb-16 06:01N 29°51' W 093°58'0 0.0
2018-Feb-16 05:31N 29°51' W 093°58'0 0.0
2018-Feb-16 05:01N 29°51' W 093°58'0 0.0
2018-Feb-16 04:30N 29°51' W 093°58'0 0.0
2018-Feb-16 04:01N 29°51' W 093°58'0 0.0
2018-Feb-16 03:30N 29°51' W 093°58'0 0.0
2018-Feb-16 03:00N 29°51' W 093°58'0 0.0
2018-Feb-16 02:31N 29°51' W 093°58'0 0.0
2018-Feb-16 02:00N 29°51' W 093°58'0 0.0
2018-Feb-16 01:31N 29°51' W 093°58'0 0.0
2018-Feb-16 01:00N 29°51' W 093°58'0 0.0
2018-Feb-16 00:30N 29°51' W 093°58'0 0.0
2018-Feb-16 00:00N 29°51' W 093°58'0 0.0
2018-Feb-15 23:31N 29°51' W 093°58'0 0.0
2018-Feb-15 23:01N 29°51' W 093°58'0 0.0
2018-Feb-15 22:31N 29°51' W 093°58'0 0.0
2018-Feb-15 22:01N 29°51' W 093°58'0 0.0
2018-Feb-15 21:30N 29°51' W 093°58'0 0.0
2018-Feb-15 21:01N 29°51' W 093°58'0 0.0
2018-Feb-15 20:30N 29°51' W 093°58'0 0.0
2018-Feb-15 20:00N 29°51' W 093°58'0 0.0
2018-Feb-15 19:30N 29°51' W 093°58'0 0.0
2018-Feb-15 19:01N 29°51' W 093°58'0 0.1
2018-Feb-15 18:30N 29°51' W 093°58'0 0.8
2018-Feb-15 18:01N 29°51' W 093°58'2 3.2
2018-Feb-15 17:31N 29°49' W 093°59'0 0.1
2018-Feb-15 17:00N 29°49' W 093°59'0 0.0
2018-Feb-15 16:30N 29°49' W 093°59'0 0.0
2018-Feb-15 16:00N 29°49' W 093°59'0 0.0
2018-Feb-15 15:31N 29°49' W 093°59'0 0.0
2018-Feb-15 15:01N 29°49' W 093°59'0 0.0
2018-Feb-15 14:31N 29°49' W 093°59'0 0.0
2018-Feb-15 13:55N 29°49' W 093°59'0 0.0
2018-Feb-15 13:29N 29°49' W 093°59'0 0.0
2018-Feb-15 13:00N 29°49' W 093°59'0 0.0
2018-Feb-15 12:30N 29°49' W 093°59'0 0.0
2018-Feb-15 11:59N 29°49' W 093°59'0 0.0
2018-Feb-15 11:28N 29°49' W 093°59'0 0.0
2018-Feb-15 11:01N 29°49' W 093°59'0 0.0
2018-Feb-15 10:31N 29°49' W 093°59'0 0.0
2018-Feb-15 10:00N 29°49' W 093°59'0 0.0
2018-Feb-15 09:31N 29°49' W 093°59'0 0.0
2018-Feb-15 09:00N 29°49' W 093°59'0 0.0
2018-Feb-15 08:30N 29°49' W 093°59'0 0.0
2018-Feb-15 07:55N 29°49' W 093°59'0 0.0
2018-Feb-15 07:29N 29°49' W 093°59'0 0.0
2018-Feb-15 06:58N 29°49' W 093°59'0 0.0
2018-Feb-15 06:30N 29°49' W 093°59'0 0.0
2018-Feb-15 06:00N 29°49' W 093°59'0 0.0
2018-Feb-15 05:31N 29°49' W 093°59'0 0.0
2018-Feb-15 05:01N 29°49' W 093°59'0 0.0
2018-Feb-15 04:31N 29°49' W 093°59'0 0.0
2018-Feb-15 04:00N 29°49' W 093°59'0 0.0
2018-Feb-15 03:30N 29°49' W 093°59'0 0.0
2018-Feb-15 03:01N 29°49' W 093°59'0 0.0
2018-Feb-15 02:31N 29°49' W 093°59'0 0.0
2018-Feb-15 02:00N 29°49' W 093°59'0 0.0
2018-Feb-15 01:31N 29°49' W 093°59'0 0.0
2018-Feb-15 01:00N 29°49' W 093°59'0 0.0
2018-Feb-15 00:31N 29°49' W 093°59'0 0.0
2018-Feb-14 23:58N 29°49' W 093°59'0 0.0
2018-Feb-14 23:30N 29°49' W 093°59'0 0.0
2018-Feb-14 23:01N 29°49' W 093°59'0 0.0
2018-Feb-14 22:30N 29°49' W 093°59'0 0.0
2018-Feb-14 21:59N 29°49' W 093°59'0 0.0
2018-Feb-14 21:31N 29°49' W 093°59'0 0.0
2018-Feb-14 21:00N 29°49' W 093°59'0 0.0
2018-Feb-14 20:31N 29°49' W 093°59'0 0.0
2018-Feb-14 20:00N 29°49' W 093°59'0 0.0
2018-Feb-14 19:30N 29°49' W 093°59'0 0.0
2018-Feb-14 19:00N 29°49' W 093°59'0 0.0
2018-Feb-14 18:31N 29°49' W 093°59'0 0.0
2018-Feb-14 18:01N 29°49' W 093°59'0 0.0
2018-Feb-14 17:31N 29°49' W 093°59'0 0.0
2018-Feb-14 17:01N 29°49' W 093°59'0 0.0
2018-Feb-14 16:31N 29°49' W 093°59'0 0.0
2018-Feb-14 15:59N 29°49' W 093°59'0 0.0
2018-Feb-14 15:28N 29°49' W 093°59'0 0.0
2018-Feb-14 15:00N 29°49' W 093°59'0 0.0
2018-Feb-14 14:29N 29°49' W 093°59'0 0.0
2018-Feb-14 14:00N 29°49' W 093°59'0 0.0
2018-Feb-14 13:31N 29°49' W 093°59'0 0.0
2018-Feb-14 13:01N 29°49' W 093°59'0 0.0
2018-Feb-14 12:30N 29°49' W 093°59'0 0.0
2018-Feb-14 11:59N 29°49' W 093°59'0 0.0
2018-Feb-14 11:30N 29°49' W 093°59'0 0.0
2018-Feb-14 11:01N 29°49' W 093°59'0 0.0
2018-Feb-14 10:30N 29°49' W 093°59'0 0.0
2018-Feb-14 10:00N 29°49' W 093°59'0 0.0
2018-Feb-14 09:31N 29°49' W 093°59'0 0.0
2018-Feb-14 09:01N 29°49' W 093°59'0 0.0
2018-Feb-14 08:31N 29°49' W 093°59'0 0.0
2018-Feb-14 08:00N 29°49' W 093°59'0 0.0
2018-Feb-14 07:31N 29°49' W 093°59'0 0.0
2018-Feb-14 07:01N 29°49' W 093°59'0 0.0
2018-Feb-14 06:31N 29°49' W 093°59'0 0.0
2018-Feb-14 06:00N 29°49' W 093°59'0 0.0
2018-Feb-14 05:31N 29°49' W 093°59'0 0.0
2018-Feb-14 05:01N 29°49' W 093°59'0 0.0
2018-Feb-14 04:30N 29°49' W 093°59'0 0.0
2018-Feb-14 04:01N 29°49' W 093°59'0 0.0
2018-Feb-14 03:31N 29°49' W 093°59'0 0.0
2018-Feb-14 02:59N 29°49' W 093°59'0 0.0
2018-Feb-14 02:30N 29°49' W 093°59'0 0.0
2018-Feb-14 02:01N 29°49' W 093°59'0 0.0
2018-Feb-14 01:31N 29°49' W 093°59'0 0.0
2018-Feb-14 01:01N 29°49' W 093°59'0 0.0
2018-Feb-14 00:29N 29°49' W 093°59'0 0.0
2018-Feb-14 00:01N 29°49' W 093°59'0 0.0
2018-Feb-13 23:31N 29°49' W 093°59'0 0.0
2018-Feb-13 23:00N 29°49' W 093°59'0 0.0
2018-Feb-13 22:31N 29°49' W 093°59'0 0.0
2018-Feb-13 22:00N 29°49' W 093°59'0 0.0
2018-Feb-13 21:29N 29°49' W 093°59'0 0.0
2018-Feb-13 20:59N 29°49' W 093°59'0 0.0
2018-Feb-13 20:31N 29°49' W 093°59'0 0.0
2018-Feb-13 19:59N 29°49' W 093°59'0 0.0
2018-Feb-13 19:30N 29°49' W 093°59'0 0.0
2018-Feb-13 19:00N 29°49' W 093°59'0 0.0
2018-Feb-13 18:31N 29°49' W 093°59'0 0.0
2018-Feb-13 18:00N 29°49' W 093°59'0 0.0
2018-Feb-13 17:30N 29°49' W 093°59'0 0.0
2018-Feb-13 17:01N 29°49' W 093°59'0 0.0
2018-Feb-13 16:31N 29°49' W 093°59'0 0.0
2018-Feb-13 16:01N 29°49' W 093°59'0 0.0
2018-Feb-13 15:30N 29°49' W 093°59'0 0.0
2018-Feb-13 15:01N 29°49' W 093°59'0 0.0
2018-Feb-13 14:31N 29°49' W 093°59'0 0.0
2018-Feb-13 14:00N 29°49' W 093°59'0 0.0
2018-Feb-13 13:30N 29°49' W 093°59'0 0.0
2018-Feb-13 13:00N 29°49' W 093°59'0 0.0
2018-Feb-13 12:30N 29°49' W 093°59'0 0.0
2018-Feb-13 12:00N 29°49' W 093°59'0 0.0
2018-Feb-13 11:31N 29°49' W 093°59'0 0.0
2018-Feb-13 11:01N 29°49' W 093°59'1 1.7
2018-Feb-13 10:31N 29°49' W 093°60'2 4.8
2018-Feb-13 10:01N 29°47' W 094°01'3 5.1
2018-Feb-13 09:30N 29°45' W 094°04'2 5.0
2018-Feb-13 09:01N 29°44' W 094°06'3 5.0
2018-Feb-13 08:30N 29°42' W 094°08'2 4.9
2018-Feb-13 08:01N 29°41' W 094°11'2 3.4
2018-Feb-13 07:28N 29°40' W 094°13'1 1.6
2018-Feb-13 07:00N 29°40' W 094°13'2 5.0
2018-Feb-13 06:31N 29°39' W 094°16'2 4.9
2018-Feb-13 06:00N 29°38' W 094°19'3 4.8
2018-Feb-13 05:26N 29°37' W 094°21'2 4.3
2018-Feb-13 05:01N 29°36' W 094°23'3 3.2
2018-Feb-13 04:03N 29°34' W 094°26'24 3.8
2018-Feb-12 21:40N 29°31' W 094°53'1 6.4
2018-Feb-12 21:30N 29°32' W 094°54'3 7.1
2018-Feb-12 21:01N 29°35' W 094°56'4 7.5
2018-Feb-12 20:30N 29°39' W 094°58'4 7.5
2018-Feb-12 19:59N 29°42' W 095°01'6 1.1
2018-Feb-12 14:41N 29°46' W 095°05'1 0.1
2018-Feb-12 04:28N 29°46' W 095°04'0 0.0
2018-Feb-12 03:33N 29°46' W 095°04'0 0.0
2018-Feb-12 03:30N 29°46' W 095°04'0 0.0
2018-Feb-12 02:28N 29°46' W 095°04'0 0.0
2018-Feb-12 01:48N 29°46' W 095°04'0 0.0
2018-Feb-12 01:11N 29°46' W 095°04'0 0.0
2018-Feb-12 01:00N 29°46' W 095°04'0 0.0
2018-Feb-11 12:36N 29°46' W 095°04'0 0.0
2018-Feb-10 20:58N 29°46' W 095°04'0 0.0
2018-Feb-10 14:16N 29°46' W 095°04'0 0.0
2018-Feb-10 09:26N 29°46' W 095°04'  
Track history (hours):
 
Tides and Currents Weather Stations Pressure Air Temp Water Temp Dewpoint Dewpoint Depression Visibility Wind Speed Wind Dir Waves Ship Positions

Donny Nolan

Owner: Kirby Inland Marine LP, Houston, TX. More information available from US FCC via Universal Licensing System and Coast Guard Vessel Documentation Center.

Last reported at 2018-Feb-20 05:58 UTC. Time now 2018-Feb-20 06:04 UTC.
Position N 28°45' W 095°46'.

Length 214 m; draft 3 m.

Type: . MMSI: 367415220.

Date/timePositionNaut miles runAvg speedWind from/ knotsBaromVisibWave heightAir tempDewpointWater temp
2018-Feb-20 05:58N 28°45' W 095°46'32 3.6
2018-Feb-19 21:03N 29°02' W 095°14'0 4.6
2018-Feb-19 21:01N 29°02' W 095°14'3 4.8
2018-Feb-19 20:26N 29°04' W 095°13'2 4.4
2018-Feb-19 19:57N 29°06' W 095°12'10 3.8
2018-Feb-19 17:20N 29°12' W 095°03'1 4.0
2018-Feb-19 16:58N 29°13' W 095°02'2 4.5
2018-Feb-19 16:30N 29°15' W 095°00'2 4.4
2018-Feb-19 16:00N 29°17' W 094°59'5 4.4
2018-Feb-19 14:51N 29°18' W 094°53'1 3.4
2018-Feb-19 14:30N 29°19' W 094°52'2 3.9
2018-Feb-19 13:59N 29°20' W 094°50'2 4.8
2018-Feb-19 13:30N 29°21' W 094°48'2 4.9
2018-Feb-19 13:00N 29°23' W 094°46'2 4.0
2018-Feb-19 12:31N 29°24' W 094°45'2 2.8
2018-Feb-19 11:55N 29°26' W 094°43'0 0.0
2018-Feb-19 11:30N 29°26' W 094°43'0 0.0
2018-Feb-19 11:00N 29°26' W 094°43'0 0.0
2018-Feb-19 10:28N 29°26' W 094°43'0 0.0
2018-Feb-19 10:01N 29°26' W 094°43'0 0.0
2018-Feb-19 09:30N 29°26' W 094°43'0 0.0
2018-Feb-19 09:01N 29°26' W 094°43'0 0.0
2018-Feb-19 08:31N 29°26' W 094°43'0 0.0
2018-Feb-19 08:00N 29°26' W 094°43'0 0.0
2018-Feb-19 07:31N 29°26' W 094°43'0 0.0
2018-Feb-19 07:01N 29°26' W 094°43'0 0.0
2018-Feb-19 06:30N 29°26' W 094°43'0 0.0
2018-Feb-19 06:00N 29°26' W 094°43'0 0.0
2018-Feb-19 05:31N 29°26' W 094°43'0 0.0
2018-Feb-19 05:01N 29°26' W 094°43'0 0.0
2018-Feb-19 04:30N 29°26' W 094°43'0 0.0
2018-Feb-19 04:00N 29°26' W 094°43'0 0.0
2018-Feb-19 03:27N 29°26' W 094°43'0 0.0
2018-Feb-19 03:00N 29°26' W 094°43'0 0.0
2018-Feb-19 02:23N 29°26' W 094°43'0 0.0
2018-Feb-19 01:36N 29°26' W 094°43'0 0.0
2018-Feb-19 01:17N 29°26' W 094°43'0 0.0
2018-Feb-19 00:39N 29°26' W 094°43'0 0.0
2018-Feb-19 00:26N 29°26' W 094°43'2 2.5
2018-Feb-18 23:41N 29°27' W 094°42'12 3.4
2018-Feb-18 20:06N 29°32' W 094°29'0 3.4
2018-Feb-18 20:00N 29°32' W 094°29'2 3.3
2018-Feb-18 19:31N 29°33' W 094°28'2 2.7
2018-Feb-18 18:48N 29°34' W 094°26'0 1.5
2018-Feb-18 18:30N 29°34' W 094°25'1 2.8
2018-Feb-18 18:00N 29°35' W 094°25'0 0.1
2018-Feb-18 17:30N 29°36' W 094°25'0 0.0
2018-Feb-18 17:01N 29°36' W 094°25'0 0.0
2018-Feb-18 16:30N 29°36' W 094°25'0 0.0
2018-Feb-18 16:00N 29°36' W 094°25'0 0.0
2018-Feb-18 15:30N 29°36' W 094°25'0 0.0
2018-Feb-18 15:00N 29°36' W 094°25'0 0.0
2018-Feb-18 14:31N 29°36' W 094°25'0 0.1
2018-Feb-18 13:59N 29°36' W 094°25'0 0.0
2018-Feb-18 13:29N 29°36' W 094°25'0 0.0
2018-Feb-18 12:59N 29°36' W 094°25'0 0.0
2018-Feb-18 12:30N 29°36' W 094°25'0 0.0
2018-Feb-18 12:00N 29°36' W 094°25'0 0.0
2018-Feb-18 11:30N 29°36' W 094°25'0 0.0
2018-Feb-18 11:00N 29°36' W 094°25'0 0.0
2018-Feb-18 10:30N 29°36' W 094°25'0 0.3
2018-Feb-18 09:58N 29°36' W 094°25'0 0.1
2018-Feb-18 09:28N 29°36' W 094°25'0 0.3
2018-Feb-18 09:00N 29°36' W 094°24'0 0.4
2018-Feb-18 08:29N 29°36' W 094°25'0 0.2
2018-Feb-18 08:00N 29°36' W 094°25'0 0.1
2018-Feb-18 07:30N 29°36' W 094°25'0 0.1
2018-Feb-18 06:59N 29°36' W 094°25'0 0.0
2018-Feb-18 06:29N 29°36' W 094°25'2 0.6
2018-Feb-18 03:29N 29°36' W 094°22'0 0.0
2018-Feb-18 02:55N 29°36' W 094°22'0 0.0
2018-Feb-18 02:30N 29°36' W 094°22'0 0.0
2018-Feb-18 02:00N 29°36' W 094°22'0 0.0
2018-Feb-18 01:30N 29°36' W 094°22'0 0.0
2018-Feb-18 01:00N 29°36' W 094°22'0 0.0
2018-Feb-18 00:25N 29°36' W 094°22'0 0.6
2018-Feb-17 23:59N 29°36' W 094°22'0 0.0
2018-Feb-17 23:30N 29°36' W 094°22'0 0.2
2018-Feb-17 22:58N 29°36' W 094°22'0 0.1
2018-Feb-17 22:31N 29°36' W 094°22'0 0.3
2018-Feb-17 22:00N 29°36' W 094°22'2 3.8
2018-Feb-17 21:30N 29°37' W 094°20'2 4.8
2018-Feb-17 20:59N 29°38' W 094°18'2 4.7
2018-Feb-17 20:30N 29°39' W 094°15'2 4.6
2018-Feb-17 20:00N 29°40' W 094°13'2 4.1
2018-Feb-17 19:30N 29°41' W 094°11'1 2.1
2018-Feb-17 19:00N 29°41' W 094°10'2 4.1
2018-Feb-17 18:30N 29°43' W 094°08'2 4.2
2018-Feb-17 18:00N 29°44' W 094°06'2 4.2
2018-Feb-17 17:31N 29°45' W 094°04'2 4.3
2018-Feb-17 17:01N 29°47' W 094°02'2 4.2
2018-Feb-17 16:30N 29°48' W 094°00'2 4.2
2018-Feb-17 16:01N 29°49' W 093°58'1 2.3
2018-Feb-17 15:31N 29°50' W 093°58'0 0.3
2018-Feb-17 15:01N 29°51' W 093°58'0 0.7
2018-Feb-17 14:30N 29°51' W 093°58'0 0.1
2018-Feb-17 14:01N 29°51' W 093°58'0 0.0
2018-Feb-17 13:31N 29°51' W 093°58'0 0.0
2018-Feb-17 13:00N 29°51' W 093°58'0 0.0
2018-Feb-17 12:30N 29°51' W 093°58'0 0.0
2018-Feb-17 12:00N 29°51' W 093°58'0 0.0
2018-Feb-17 11:30N 29°51' W 093°58'0 0.0
2018-Feb-17 11:01N 29°51' W 093°58'0 0.0
2018-Feb-17 10:31N 29°51' W 093°58'0 0.0
2018-Feb-17 10:01N 29°51' W 093°58'0 0.0
2018-Feb-17 09:30N 29°51' W 093°58'0 0.0
2018-Feb-17 09:00N 29°51' W 093°58'0 0.0
2018-Feb-17 08:31N 29°51' W 093°58'0 0.0
2018-Feb-17 08:00N 29°51' W 093°58'0 0.0
2018-Feb-17 07:31N 29°51' W 093°58'0 0.0
2018-Feb-17 07:01N 29°51' W 093°58'0 0.0
2018-Feb-17 06:31N 29°51' W 093°58'0 0.0
2018-Feb-17 06:00N 29°51' W 093°58'0 0.0
2018-Feb-17 05:31N 29°51' W 093°58'0 0.0
2018-Feb-17 05:01N 29°51' W 093°58'0 0.0
2018-Feb-17 04:31N 29°51' W 093°58'0 0.0
2018-Feb-17 04:00N 29°51' W 093°58'0 0.0
2018-Feb-17 03:30N 29°51' W 093°58'0 0.0
2018-Feb-17 03:00N 29°51' W 093°58'0 0.0
2018-Feb-17 02:31N 29°51' W 093°58'0 0.0
2018-Feb-17 02:00N 29°51' W 093°58'0 0.0
2018-Feb-17 01:30N 29°51' W 093°58'0 0.0
2018-Feb-17 01:01N 29°51' W 093°58'0 0.0
2018-Feb-17 00:30N 29°51' W 093°58'0 0.0
2018-Feb-17 00:01N 29°51' W 093°58'0 0.0
2018-Feb-16 23:31N 29°51' W 093°58'0 0.0
2018-Feb-16 23:01N 29°51' W 093°58'0 0.0
2018-Feb-16 22:31N 29°51' W 093°58'0 0.0
2018-Feb-16 22:01N 29°51' W 093°58'0 0.0
2018-Feb-16 21:31N 29°51' W 093°58'0 0.0
2018-Feb-16 21:00N 29°51' W 093°58'0 0.7
2018-Feb-16 20:30N 29°51' W 093°58'0 0.1
2018-Feb-16 20:01N 29°51' W 093°58'0 0.1
2018-Feb-16 19:31N 29°51' W 093°58'0 0.6
2018-Feb-16 19:00N 29°51' W 093°58'0 0.0
2018-Feb-16 18:30N 29°51' W 093°58'0 0.0
2018-Feb-16 18:00N 29°51' W 093°58'0 0.0
2018-Feb-16 17:30N 29°51' W 093°58'0 0.0
2018-Feb-16 17:01N 29°51' W 093°58'0 0.0
2018-Feb-16 16:30N 29°51' W 093°58'0 0.0
2018-Feb-16 16:01N 29°51' W 093°58'0 0.0
2018-Feb-16 15:30N 29°51' W 093°58'0 0.0
2018-Feb-16 15:00N 29°51' W 093°58'0 0.0
2018-Feb-16 14:30N 29°51' W 093°58'0 0.0
2018-Feb-16 14:01N 29°51' W 093°58'0 0.0
2018-Feb-16 13:31N 29°51' W 093°58'0 0.4
2018-Feb-16 13:01N 29°51' W 093°58'0 0.3
2018-Feb-16 12:29N 29°51' W 093°58'0 0.0
2018-Feb-16 12:00N 29°51' W 093°58'0 0.0
2018-Feb-16 11:31N 29°51' W 093°58'0 0.0
2018-Feb-16 11:01N 29°51' W 093°58'0 0.0
2018-Feb-16 10:31N 29°51' W 093°58'0 0.0
2018-Feb-16 10:00N 29°51' W 093°58'0 0.0
2018-Feb-16 09:31N 29°51' W 093°58'0 0.0
2018-Feb-16 09:01N 29°51' W 093°58'0 0.0
2018-Feb-16 08:31N 29°51' W 093°58'0 0.0
2018-Feb-16 08:01N 29°51' W 093°58'0 0.0
2018-Feb-16 07:31N 29°51' W 093°58'0 0.0
2018-Feb-16 07:01N 29°51' W 093°58'0 0.0
2018-Feb-16 06:31N 29°51' W 093°58'0 0.0
2018-Feb-16 06:01N 29°51' W 093°58'0 0.0
2018-Feb-16 05:31N 29°51' W 093°58'0 0.0
2018-Feb-16 05:01N 29°51' W 093°58'0 0.0
2018-Feb-16 04:30N 29°51' W 093°58'0 0.0
2018-Feb-16 04:01N 29°51' W 093°58'0 0.0
2018-Feb-16 03:30N 29°51' W 093°58'0 0.0
2018-Feb-16 03:00N 29°51' W 093°58'0 0.0
2018-Feb-16 02:31N 29°51' W 093°58'0 0.0
2018-Feb-16 02:00N 29°51' W 093°58'0 0.0
2018-Feb-16 01:31N 29°51' W 093°58'0 0.0
2018-Feb-16 01:00N 29°51' W 093°58'0 0.0
2018-Feb-16 00:30N 29°51' W 093°58'0 0.0
2018-Feb-16 00:00N 29°51' W 093°58'0 0.0
2018-Feb-15 23:31N 29°51' W 093°58'0 0.0
2018-Feb-15 23:01N 29°51' W 093°58'0 0.0
2018-Feb-15 22:31N 29°51' W 093°58'0 0.0
2018-Feb-15 22:01N 29°51' W 093°58'0 0.0
2018-Feb-15 21:30N 29°51' W 093°58'0 0.0
2018-Feb-15 21:01N 29°51' W 093°58'0 0.0
2018-Feb-15 20:30N 29°51' W 093°58'0 0.0
2018-Feb-15 20:00N 29°51' W 093°58'0 0.0
2018-Feb-15 19:30N 29°51' W 093°58'0 0.0
2018-Feb-15 19:01N 29°51' W 093°58'0 0.1
2018-Feb-15 18:30N 29°51' W 093°58'0 0.8
2018-Feb-15 18:01N 29°51' W 093°58'2 3.2
2018-Feb-15 17:31N 29°49' W 093°59'0 0.1
2018-Feb-15 17:00N 29°49' W 093°59'0 0.0
2018-Feb-15 16:30N 29°49' W 093°59'0 0.0
2018-Feb-15 16:00N 29°49' W 093°59'0 0.0
2018-Feb-15 15:31N 29°49' W 093°59'0 0.0
2018-Feb-15 15:01N 29°49' W 093°59'0 0.0
2018-Feb-15 14:31N 29°49' W 093°59'0 0.0
2018-Feb-15 13:55N 29°49' W 093°59'0 0.0
2018-Feb-15 13:29N 29°49' W 093°59'0 0.0
2018-Feb-15 13:00N 29°49' W 093°59'0 0.0
2018-Feb-15 12:30N 29°49' W 093°59'0 0.0
2018-Feb-15 11:59N 29°49' W 093°59'0 0.0
2018-Feb-15 11:28N 29°49' W 093°59'0 0.0
2018-Feb-15 11:01N 29°49' W 093°59'0 0.0
2018-Feb-15 10:31N 29°49' W 093°59'0 0.0
2018-Feb-15 10:00N 29°49' W 093°59'0 0.0
2018-Feb-15 09:31N 29°49' W 093°59'0 0.0
2018-Feb-15 09:00N 29°49' W 093°59'0 0.0
2018-Feb-15 08:30N 29°49' W 093°59'0 0.0
2018-Feb-15 07:55N 29°49' W 093°59'0 0.0
2018-Feb-15 07:29N 29°49' W 093°59'0 0.0
2018-Feb-15 06:58N 29°49' W 093°59'0 0.0
2018-Feb-15 06:30N 29°49' W 093°59'0 0.0
2018-Feb-15 06:00N 29°49' W 093°59'0 0.0
2018-Feb-15 05:31N 29°49' W 093°59'0 0.0
2018-Feb-15 05:01N 29°49' W 093°59'0 0.0
2018-Feb-15 04:31N 29°49' W 093°59'0 0.0
2018-Feb-15 04:00N 29°49' W 093°59'0 0.0
2018-Feb-15 03:30N 29°49' W 093°59'0 0.0
2018-Feb-15 03:01N 29°49' W 093°59'0 0.0
2018-Feb-15 02:31N 29°49' W 093°59'0 0.0
2018-Feb-15 02:00N 29°49' W 093°59'0 0.0
2018-Feb-15 01:31N 29°49' W 093°59'0 0.0
2018-Feb-15 01:00N 29°49' W 093°59'0 0.0
2018-Feb-15 00:31N 29°49' W 093°59'0 0.0
2018-Feb-14 23:58N 29°49' W 093°59'0 0.0
2018-Feb-14 23:30N 29°49' W 093°59'0 0.0
2018-Feb-14 23:01N 29°49' W 093°59'0 0.0
2018-Feb-14 22:30N 29°49' W 093°59'0 0.0
2018-Feb-14 21:59N 29°49' W 093°59'0 0.0
2018-Feb-14 21:31N 29°49' W 093°59'0 0.0
2018-Feb-14 21:00N 29°49' W 093°59'0 0.0
2018-Feb-14 20:31N 29°49' W 093°59'0 0.0
2018-Feb-14 20:00N 29°49' W 093°59'0 0.0
2018-Feb-14 19:30N 29°49' W 093°59'0 0.0
2018-Feb-14 19:00N 29°49' W 093°59'0 0.0
2018-Feb-14 18:31N 29°49' W 093°59'0 0.0
2018-Feb-14 18:01N 29°49' W 093°59'0 0.0
2018-Feb-14 17:31N 29°49' W 093°59'0 0.0
2018-Feb-14 17:01N 29°49' W 093°59'0 0.0
2018-Feb-14 16:31N 29°49' W 093°59'0 0.0
2018-Feb-14 15:59N 29°49' W 093°59'0 0.0
2018-Feb-14 15:28N 29°49' W 093°59'0 0.0
2018-Feb-14 15:00N 29°49' W 093°59'0 0.0
2018-Feb-14 14:29N 29°49' W 093°59'0 0.0
2018-Feb-14 14:00N 29°49' W 093°59'0 0.0
2018-Feb-14 13:31N 29°49' W 093°59'0 0.0
2018-Feb-14 13:01N 29°49' W 093°59'0 0.0
2018-Feb-14 12:30N 29°49' W 093°59'0 0.0
2018-Feb-14 11:59N 29°49' W 093°59'0 0.0
2018-Feb-14 11:30N 29°49' W 093°59'0 0.0
2018-Feb-14 11:01N 29°49' W 093°59'0 0.0
2018-Feb-14 10:30N 29°49' W 093°59'0 0.0
2018-Feb-14 10:00N 29°49' W 093°59'0 0.0
2018-Feb-14 09:31N 29°49' W 093°59'0 0.0
2018-Feb-14 09:01N 29°49' W 093°59'0 0.0
2018-Feb-14 08:31N 29°49' W 093°59'0 0.0
2018-Feb-14 08:00N 29°49' W 093°59'0 0.0
2018-Feb-14 07:31N 29°49' W 093°59'0 0.0
2018-Feb-14 07:01N 29°49' W 093°59'0 0.0
2018-Feb-14 06:31N 29°49' W 093°59'0 0.0
2018-Feb-14 06:00N 29°49' W 093°59'0 0.0
2018-Feb-14 05:31N 29°49' W 093°59'0 0.0
2018-Feb-14 05:01N 29°49' W 093°59'0 0.0
2018-Feb-14 04:30N 29°49' W 093°59'0 0.0
2018-Feb-14 04:01N 29°49' W 093°59'0 0.0
2018-Feb-14 03:31N 29°49' W 093°59'0 0.0
2018-Feb-14 02:59N 29°49' W 093°59'0 0.0
2018-Feb-14 02:30N 29°49' W 093°59'0 0.0
2018-Feb-14 02:01N 29°49' W 093°59'0 0.0
2018-Feb-14 01:31N 29°49' W 093°59'0 0.0
2018-Feb-14 01:01N 29°49' W 093°59'0 0.0
2018-Feb-14 00:29N 29°49' W 093°59'0 0.0
2018-Feb-14 00:01N 29°49' W 093°59'0 0.0
2018-Feb-13 23:31N 29°49' W 093°59'0 0.0
2018-Feb-13 23:00N 29°49' W 093°59'0 0.0
2018-Feb-13 22:31N 29°49' W 093°59'0 0.0
2018-Feb-13 22:00N 29°49' W 093°59'0 0.0
2018-Feb-13 21:29N 29°49' W 093°59'0 0.0
2018-Feb-13 20:59N 29°49' W 093°59'0 0.0
2018-Feb-13 20:31N 29°49' W 093°59'0 0.0
2018-Feb-13 19:59N 29°49' W 093°59'0 0.0
2018-Feb-13 19:30N 29°49' W 093°59'0 0.0
2018-Feb-13 19:00N 29°49' W 093°59'0 0.0
2018-Feb-13 18:31N 29°49' W 093°59'0 0.0
2018-Feb-13 18:00N 29°49' W 093°59'0 0.0
2018-Feb-13 17:30N 29°49' W 093°59'0 0.0
2018-Feb-13 17:01N 29°49' W 093°59'0 0.0
2018-Feb-13 16:31N 29°49' W 093°59'0 0.0
2018-Feb-13 16:01N 29°49' W 093°59'0 0.0
2018-Feb-13 15:30N 29°49' W 093°59'0 0.0
2018-Feb-13 15:01N 29°49' W 093°59'0 0.0
2018-Feb-13 14:31N 29°49' W 093°59'0 0.0
2018-Feb-13 14:00N 29°49' W 093°59'0 0.0
2018-Feb-13 13:30N 29°49' W 093°59'0 0.0
2018-Feb-13 13:00N 29°49' W 093°59'0 0.0
2018-Feb-13 12:30N 29°49' W 093°59'0 0.0
2018-Feb-13 12:00N 29°49' W 093°59'0 0.0
2018-Feb-13 11:31N 29°49' W 093°59'0 0.0
2018-Feb-13 11:01N 29°49' W 093°59'1 1.7
2018-Feb-13 10:31N 29°49' W 093°60'2 4.8
2018-Feb-13 10:01N 29°47' W 094°01'3 5.1
2018-Feb-13 09:30N 29°45' W 094°04'2 5.0
2018-Feb-13 09:01N 29°44' W 094°06'3 5.0
2018-Feb-13 08:30N 29°42' W 094°08'2 4.9
2018-Feb-13 08:01N 29°41' W 094°11'2 3.4
2018-Feb-13 07:28N 29°40' W 094°13'1 1.6
2018-Feb-13 07:00N 29°40' W 094°13'2 5.0
2018-Feb-13 06:31N 29°39' W 094°16'2 4.9
2018-Feb-13 06:00N 29°38' W 094°19'3 4.8
2018-Feb-13 05:26N 29°37' W 094°21'2 4.3
2018-Feb-13 05:01N 29°36' W 094°23'3 3.2
2018-Feb-13 04:03N 29°34' W 094°26'24 3.8
2018-Feb-12 21:40N 29°31' W 094°53'1 6.4
2018-Feb-12 21:30N 29°32' W 094°54'3 7.1
2018-Feb-12 21:01N 29°35' W 094°56'4 7.5
2018-Feb-12 20:30N 29°39' W 094°58'4 7.5
2018-Feb-12 19:59N 29°42' W 095°01'6 1.1
2018-Feb-12 14:41N 29°46' W 095°05'1 0.1
2018-Feb-12 04:28N 29°46' W 095°04'0 0.0
2018-Feb-12 03:33N 29°46' W 095°04'0 0.0
2018-Feb-12 03:30N 29°46' W 095°04'0 0.0
2018-Feb-12 02:28N 29°46' W 095°04'0 0.0
2018-Feb-12 01:48N 29°46' W 095°04'0 0.0
2018-Feb-12 01:11N 29°46' W 095°04'0 0.0
2018-Feb-12 01:00N 29°46' W 095°04'0 0.0
2018-Feb-11 12:36N 29°46' W 095°04'0 0.0
2018-Feb-10 20:58N 29°46' W 095°04'0 0.0
2018-Feb-10 14:16N 29°46' W 095°04'0 0.0
2018-Feb-10 09:26N 29°46' W 095°04'  

Dump ship's entire track history